Bookmark and Share
Track history (hours):
 

Lapis Arrow

Last reported at 2014-Apr-01 09:23 UTC. Time now 2014-Apr-19 14:30 UTC.
Position N 19°26' W 095°24'.
Warning: this ship's position is 18 days out of date.

Length 176 m; draft 7.3 m.

Type: Cargo ship. MMSI: 308800800.

NotesDate/timePositionNaut miles runAvg speedWind from/ knotsBaromVisibWave heightAir tempDewpointWater temp
2014-Apr-01 09:23N 19°26' W 095°24'1215.1
2014-Apr-01 08:33N 19°19' W 095°35'1514.9
2014-Apr-01 07:33N 19°12' W 095°49'1414.2
2014-Apr-01 06:34N 19°11' W 096°04'4 4.1
2014-Apr-01 05:29N 19°12' W 096°08'0 0.0
2014-Apr-01 04:32N 19°12' W 096°08'0 0.0
2014-Apr-01 03:31N 19°12' W 096°08'0 0.0
2014-Apr-01 02:25N 19°12' W 096°08'0 0.0
2014-Apr-01 01:28N 19°12' W 096°08'0 0.0
2014-Apr-01 00:31N 19°12' W 096°08'0 0.0
2014-Mar-31 23:33N 19°12' W 096°08'0 0.0
2014-Mar-31 22:33N 19°12' W 096°08'0 0.0
2014-Mar-31 21:30N 19°12' W 096°08'0 0.0
2014-Mar-31 20:33N 19°12' W 096°08'0 0.0
2014-Mar-31 19:32N 19°12' W 096°08'0 0.0
2014-Mar-31 18:32N 19°12' W 096°08'0 0.0
2014-Mar-31 17:34N 19°12' W 096°08'3 3.2
2014-Mar-31 16:33N 19°12' W 096°05'4 4.4
2014-Mar-31 15:33N 19°15' W 096°01'4 3.8
2014-Mar-31 14:34N 19°18' W 096°04'1 0.6
2014-Mar-31 13:34N 19°18' W 096°04'1 0.7
2014-Mar-31 12:33N 19°19' W 096°05'1 0.8
2014-Mar-31 11:33N 19°20' W 096°05'1 0.9
2014-Mar-31 10:34N 19°20' W 096°05'0 0.2
2014-Mar-31 09:33N 19°21' W 096°05'4 3.9
2014-Mar-31 08:33N 19°17' W 096°03'1 0.9
2014-Mar-31 07:33N 19°18' W 096°04'1 0.7
2014-Mar-31 06:33N 19°19' W 096°04'1 1.0
2014-Mar-31 05:34N 19°20' W 096°04'1 1.1
2014-Mar-31 04:33N 19°21' W 096°05'8 7.9
2014-Mar-31 03:34N 19°29' W 096°05'1615.3
2014-Mar-31 02:32N 19°43' W 096°12'  

Dump ship's entire track history

sailing weather and tide predictions

Lapis Arrow — C6VH5 — position and weather